createdAt,value
2022-11-12T00:02:38.207Z,14.17
2022-11-12T00:05:25.063Z,17.13
2022-11-12T00:08:11.862Z,15.07
2022-11-12T00:10:59.754Z,14.70
2022-11-12T00:13:46.101Z,13.70
2022-11-12T00:16:32.344Z,14.17
2022-11-12T00:19:18.698Z,14.43
2022-11-12T00:22:05.009Z,12.67
2022-11-12T00:24:51.486Z,15.03
2022-11-12T00:27:39.101Z,15.00
2022-11-12T00:30:25.470Z,16.20
2022-11-12T00:33:11.945Z,16.77
2022-11-12T00:36:00.580Z,15.07
2022-11-12T00:38:47.105Z,17.47
2022-11-12T00:41:33.639Z,15.20
2022-11-12T00:44:21.736Z,15.13
2022-11-12T00:47:08.018Z,13.10
2022-11-12T00:49:54.380Z,13.07
2022-11-12T00:52:40.705Z,16.27
2022-11-12T00:55:27.114Z,15.97
2022-11-12T00:58:13.663Z,14.93
2022-11-12T01:01:06.869Z,15.77
2022-11-12T01:03:53.657Z,15.00
2022-11-12T01:06:41.601Z,14.30
2022-11-12T01:09:28.083Z,13.13
2022-11-12T01:12:14.477Z,13.70
2022-11-12T01:15:01.493Z,14.73
2022-11-12T01:17:49.414Z,13.03
2022-11-12T01:20:38.722Z,15.87
2022-11-12T01:23:25.461Z,14.57
2022-11-12T01:26:15.032Z,16.97
2022-11-12T01:29:01.818Z,13.83
2022-11-12T01:31:48.347Z,13.73
2022-11-12T01:34:36.460Z,14.80
2022-11-12T01:37:23.001Z,14.47
2022-11-12T01:40:10.702Z,14.77
2022-11-12T01:42:57.693Z,14.30
2022-11-12T01:45:50.433Z,13.67
2022-11-12T01:48:42.124Z,14.37
2022-11-12T01:51:35.441Z,12.53
2022-11-12T01:54:23.296Z,14.30
2022-11-12T01:57:13.155Z,15.33
2022-11-12T02:00:08.426Z,15.63
2022-11-12T02:02:59.810Z,15.70
2022-11-12T02:05:49.108Z,14.23
2022-11-12T02:08:39.504Z,15.43
2022-11-12T02:11:26.146Z,15.33
2022-11-12T02:14:12.236Z,12.30
2022-11-12T02:16:59.740Z,16.57
2022-11-12T02:19:48.328Z,15.97
2022-11-12T02:22:36.355Z,14.07
2022-11-12T02:25:25.592Z,13.83
2022-11-12T02:28:11.852Z,12.47
2022-11-12T02:30:58.223Z,12.97
2022-11-12T02:33:44.531Z,15.67
2022-11-12T02:36:31.258Z,12.97
2022-11-12T02:39:19.462Z,12.80
2022-11-12T02:42:06.460Z,16.63
2022-11-12T02:44:53.074Z,13.43
2022-11-12T02:47:39.447Z,14.43
2022-11-12T02:50:26.154Z,14.73
2022-11-12T02:53:12.517Z,11.87
2022-11-12T02:56:00.911Z,11.23
2022-11-12T02:58:47.555Z,11.80
2022-11-12T03:01:34.053Z,10.93
2022-11-12T03:04:20.354Z,12.30
2022-11-12T03:07:06.962Z,13.43
2022-11-12T03:09:53.856Z,12.37
2022-11-12T03:12:41.519Z,12.63
2022-11-12T03:15:29.120Z,11.90
2022-11-12T03:18:15.393Z,13.73
2022-11-12T03:21:01.685Z,14.70
2022-11-12T03:23:48.033Z,13.27
2022-11-12T03:26:36.053Z,18.23
2022-11-12T03:29:23.829Z,12.40
2022-11-12T03:32:10.268Z,15.50
2022-11-12T03:34:56.740Z,13.00
2022-11-12T03:37:43.095Z,15.40
2022-11-12T03:40:30.153Z,13.10
2022-11-12T03:43:16.963Z,12.87
2022-11-12T03:46:04.699Z,14.80
2022-11-12T03:48:51.180Z,17.40
2022-11-12T03:51:37.593Z,19.13
2022-11-12T03:54:23.951Z,14.67
2022-11-12T03:57:10.361Z,13.77
2022-11-12T03:59:56.846Z,17.83
2022-11-12T04:02:44.774Z,15.10
2022-11-12T04:05:49.058Z,13.70
2022-11-12T04:08:38.727Z,13.97
2022-11-12T04:11:26.157Z,14.10
2022-11-12T04:14:12.423Z,12.93
2022-11-12T04:17:21.529Z,13.37
2022-11-12T04:20:27.849Z,13.53
2022-11-12T04:23:14.461Z,10.53
2022-11-12T04:26:18.946Z,13.43
2022-11-12T04:29:23.562Z,14.30
2022-11-12T04:32:10.299Z,14.00
2022-11-12T04:34:57.404Z,11.10
2022-11-12T04:37:45.387Z,11.97
2022-11-12T04:40:49.969Z,12.00
2022-11-12T04:43:54.497Z,11.63
2022-11-12T04:46:41.111Z,16.97
2022-11-12T04:49:27.503Z,13.10
2022-11-12T04:52:14.150Z,12.37
2022-11-12T04:55:02.156Z,13.10
2022-11-12T04:57:48.653Z,11.97
2022-11-12T05:00:34.969Z,12.53
2022-11-12T05:03:21.602Z,11.87
2022-11-12T05:06:28.857Z,12.77
2022-11-12T05:09:15.373Z,12.23
2022-11-12T05:12:03.544Z,11.47
2022-11-12T05:14:49.806Z,10.97
2022-11-12T05:17:36.414Z,12.90
2022-11-12T05:20:23.098Z,11.03
2022-11-12T05:23:09.677Z,12.20
2022-11-12T05:25:56.029Z,15.67
2022-11-12T05:28:44.152Z,12.83
2022-11-12T05:31:30.532Z,13.00
2022-11-12T05:34:22.576Z,14.33
2022-11-12T05:37:10.550Z,13.40
2022-11-12T05:39:57.338Z,12.53
2022-11-12T05:42:43.597Z,13.80
2022-11-12T05:45:31.260Z,12.80
2022-11-12T05:48:24.057Z,13.33
2022-11-12T05:51:13.314Z,11.83
2022-11-12T05:54:00.625Z,11.10
2022-11-12T05:56:47.353Z,16.47
2022-11-12T05:59:33.663Z,12.47
2022-11-12T06:02:21.693Z,13.97
2022-11-12T06:05:09.260Z,13.40
2022-11-12T06:07:55.519Z,11.60
2022-11-12T06:10:41.751Z,12.30
2022-11-12T06:13:28.286Z,10.47
2022-11-12T06:16:14.559Z,12.33
2022-11-12T06:19:02.550Z,11.17
2022-11-12T06:21:49.783Z,12.30
2022-11-12T06:24:36.901Z,14.13
2022-11-12T06:27:24.475Z,13.13
2022-11-12T06:30:11.793Z,12.93
2022-11-12T06:32:58.358Z,11.90
2022-11-12T06:35:46.298Z,14.87
2022-11-12T06:38:33.946Z,15.23
2022-11-12T06:41:20.382Z,11.80
2022-11-12T06:44:07.102Z,11.27
2022-11-12T06:46:53.474Z,12.77
2022-11-12T06:49:39.782Z,12.63
2022-11-12T06:52:27.465Z,11.93
2022-11-12T06:55:13.878Z,13.03
2022-11-12T06:58:00.241Z,11.97
2022-11-12T07:00:46.542Z,10.10
2022-11-12T07:03:33.041Z,11.10
2022-11-12T07:06:20.316Z,12.33
2022-11-12T07:09:08.655Z,13.13
2022-11-12T07:11:55.291Z,13.57
2022-11-12T07:14:41.925Z,13.20
2022-11-12T07:17:29.420Z,12.50
2022-11-12T07:20:16.329Z,12.60
2022-11-12T07:23:03.097Z,13.57
2022-11-12T07:25:56.799Z,12.30
2022-11-12T07:28:43.233Z,12.47
2022-11-12T07:31:29.674Z,10.93
2022-11-12T07:34:15.966Z,13.00
2022-11-12T07:37:02.469Z,12.47
2022-11-12T07:39:48.843Z,11.83
2022-11-12T07:42:36.879Z,12.67
2022-11-12T07:45:23.586Z,11.87
2022-11-12T07:48:09.957Z,11.90
2022-11-12T07:51:01.779Z,10.83
2022-11-12T07:53:49.158Z,13.17
2022-11-12T07:56:35.927Z,10.13
2022-11-12T07:59:24.158Z,12.77
2022-11-12T08:02:11.127Z,10.70
2022-11-12T08:04:57.925Z,10.07
2022-11-12T08:07:44.281Z,10.40
2022-11-12T08:10:30.999Z,13.67
2022-11-12T08:13:17.521Z,12.07
2022-11-12T08:16:05.713Z,11.57
2022-11-12T08:18:52.070Z,12.67
2022-11-12T08:21:38.797Z,10.27
2022-11-12T08:24:25.448Z,11.87
2022-11-12T08:27:11.685Z,11.83
2022-11-12T08:29:58.135Z,10.80
2022-11-12T08:32:45.993Z,13.13
2022-11-12T08:35:33.820Z,12.87
2022-11-12T08:38:20.525Z,13.10
2022-11-12T08:41:08.501Z,13.20
2022-11-12T08:43:55.091Z,12.43
2022-11-12T08:46:41.394Z,11.30
2022-11-12T08:49:29.214Z,12.40
2022-11-12T08:52:15.545Z,12.07
2022-11-12T08:55:01.987Z,12.03
2022-11-12T08:57:48.426Z,13.33
2022-11-12T09:00:36.835Z,13.00
2022-11-12T09:03:25.376Z,16.27
2022-11-12T09:06:12.938Z,14.80
2022-11-12T09:08:59.790Z,13.10
2022-11-12T09:11:46.108Z,13.73
2022-11-12T09:14:33.010Z,14.40
2022-11-12T09:17:19.893Z,11.57
2022-11-12T09:20:07.179Z,11.23
2022-11-12T09:22:55.203Z,11.63
2022-11-12T09:25:42.697Z,13.83
2022-11-12T09:28:29.306Z,11.07
2022-11-12T09:31:15.662Z,12.20
2022-11-12T09:34:01.969Z,11.03
2022-11-12T09:36:48.393Z,12.60
2022-11-12T09:39:36.438Z,13.87
2022-11-12T09:42:23.914Z,14.13
2022-11-12T09:45:15.873Z,9.90
2022-11-12T09:48:07.526Z,10.73
2022-11-12T09:50:59.054Z,13.60
2022-11-12T09:53:49.006Z,12.27
2022-11-12T09:56:36.793Z,9.30
2022-11-12T09:59:24.979Z,9.90
2022-11-12T10:02:26.605Z,11.40
2022-11-12T10:05:26.470Z,10.13
2022-11-12T10:08:30.005Z,10.90
2022-11-12T10:12:04.401Z,9.77
2022-11-12T10:15:52.293Z,9.23
2022-11-12T10:18:51.996Z,9.30
2022-11-12T10:21:46.771Z,8.93
2022-11-12T10:24:36.809Z,11.13
2022-11-12T10:27:29.254Z,11.80
2022-11-12T10:30:18.296Z,9.57
2022-11-12T10:33:04.776Z,9.13
2022-11-12T10:35:53.677Z,17.17
2022-11-12T10:38:43.761Z,11.03
2022-11-12T10:41:32.708Z,10.70
2022-11-12T10:44:27.141Z,8.50
2022-11-12T10:47:30.223Z,8.20
2022-11-12T10:50:21.293Z,7.53
2022-11-12T10:53:11.265Z,8.57
2022-11-12T10:55:59.657Z,7.90
2022-11-12T10:58:45.917Z,10.90
2022-11-12T11:01:35.855Z,8.57
2022-11-12T11:04:31.513Z,7.43
2022-11-12T11:07:22.694Z,10.97
2022-11-12T11:10:25.375Z,8.50
2022-11-12T11:13:20.771Z,7.70
2022-11-12T11:16:11.360Z,9.13
2022-11-12T11:19:00.924Z,8.20
2022-11-12T11:22:03.580Z,9.20
2022-11-12T11:25:00.228Z,7.57
2022-11-12T11:27:56.995Z,8.47
2022-11-12T11:30:53.193Z,9.27
2022-11-12T11:33:47.564Z,8.47
2022-11-12T11:36:43.896Z,7.87
2022-11-12T11:39:43.085Z,10.00
2022-11-12T11:42:52.514Z,8.27
2022-11-12T11:45:56.972Z,8.80
2022-11-12T11:48:58.896Z,10.83
2022-11-12T11:51:56.725Z,9.77
2022-11-12T11:55:01.070Z,9.07
2022-11-12T11:57:57.951Z,9.63
2022-11-12T12:00:53.914Z,8.57
2022-11-12T12:03:56.031Z,11.83
2022-11-12T12:06:54.759Z,8.40
2022-11-12T12:09:50.115Z,9.73
2022-11-12T12:12:48.199Z,9.13
2022-11-12T12:15:51.398Z,8.30
2022-11-12T12:18:47.652Z,7.40
2022-11-12T12:21:38.834Z,10.23
2022-11-12T12:24:30.780Z,10.93
2022-11-12T12:27:21.691Z,6.90
2022-11-12T12:30:18.313Z,7.97
2022-11-12T12:33:16.887Z,7.50
2022-11-12T12:36:06.134Z,6.87
2022-11-12T12:38:56.651Z,9.80
2022-11-12T12:41:48.800Z,9.83
2022-11-12T12:44:59.282Z,8.87
2022-11-12T12:47:48.946Z,6.80
2022-11-12T12:50:39.706Z,7.63
2022-11-12T12:53:34.562Z,7.53
2022-11-12T12:56:46.358Z,7.33
2022-11-12T12:59:33.241Z,8.60
2022-11-12T13:02:22.348Z,6.40
2022-11-12T13:05:24.821Z,5.37
2022-11-12T13:08:14.892Z,7.67
2022-11-12T13:11:01.276Z,6.00
2022-11-12T13:13:49.065Z,7.77
2022-11-12T13:16:58.369Z,7.40
2022-11-12T13:20:09.133Z,8.17
2022-11-12T13:22:56.026Z,5.60
2022-11-12T13:25:42.482Z,6.20
2022-11-12T13:28:29.206Z,6.80
2022-11-12T13:31:28.797Z,7.93
2022-11-12T13:34:22.000Z,8.53
2022-11-12T13:37:20.690Z,7.47
2022-11-12T13:40:12.854Z,9.17
2022-11-12T13:43:04.652Z,7.70
2022-11-12T13:45:55.879Z,7.77
2022-11-12T13:48:46.512Z,9.93
2022-11-12T13:51:40.303Z,8.53
2022-11-12T13:54:29.537Z,8.27
2022-11-12T13:57:26.952Z,11.07
2022-11-12T14:00:28.178Z,8.13
2022-11-12T14:03:19.546Z,9.83
2022-11-12T14:06:16.302Z,8.30
2022-11-12T14:09:17.429Z,10.40
2022-11-12T14:12:19.565Z,9.63
2022-11-12T14:15:18.586Z,9.20
2022-11-12T14:18:13.258Z,10.97
2022-11-12T14:21:05.530Z,9.07
2022-11-12T14:23:53.846Z,8.40
2022-11-12T14:26:42.347Z,9.30
2022-11-12T14:29:34.172Z,10.93
2022-11-12T14:32:21.543Z,11.27
2022-11-12T14:35:28.502Z,9.23
2022-11-12T14:38:19.274Z,11.83
2022-11-12T14:41:10.979Z,14.03
2022-11-12T14:44:12.210Z,10.93
2022-11-12T14:47:00.024Z,16.53
2022-11-12T14:49:50.027Z,13.57
2022-11-12T14:52:41.833Z,12.53
2022-11-12T14:55:31.426Z,12.63
2022-11-12T14:58:21.396Z,14.47
2022-11-12T15:02:08.462Z,11.80
2022-11-12T15:04:38.000Z,11.70
2022-11-12T15:07:26.802Z,13.50
2022-11-12T15:10:30.922Z,13.17
2022-11-12T15:13:21.460Z,12.30
2022-11-12T15:16:10.565Z,9.80
2022-11-12T15:19:09.045Z,14.57
2022-11-12T15:21:58.434Z,16.17
2022-11-12T15:24:46.028Z,16.30
2022-11-12T15:27:38.190Z,13.47
2022-11-12T15:30:28.571Z,13.03
2022-11-12T15:33:21.989Z,12.83
2022-11-12T15:36:17.489Z,27.47
2022-11-12T15:39:04.771Z,34.10
2022-11-12T15:41:58.791Z,43.47
2022-11-12T15:44:46.244Z,20.00
2022-11-12T15:47:34.254Z,14.33
2022-11-12T15:50:23.054Z,16.30
2022-11-12T15:53:09.817Z,13.73
2022-11-12T15:55:56.253Z,13.70
2022-11-12T15:58:42.981Z,18.50
2022-11-12T16:01:29.857Z,21.10
2022-11-12T16:04:17.467Z,21.30
2022-11-12T16:07:06.715Z,23.00
2022-11-12T16:09:54.128Z,21.73
2022-11-12T16:12:40.928Z,19.33
2022-11-12T16:15:27.792Z,20.37
2022-11-12T16:18:14.373Z,15.70
2022-11-12T16:21:02.098Z,30.37
2022-11-12T16:23:48.691Z,18.07
2022-11-12T16:26:35.935Z,20.00
2022-11-12T16:29:22.639Z,16.63
2022-11-12T16:32:13.772Z,16.40
2022-11-12T16:35:01.426Z,17.30
2022-11-12T16:37:49.810Z,16.27
2022-11-12T16:40:36.702Z,14.20
2022-11-12T16:43:23.018Z,14.67
2022-11-12T16:46:16.478Z,14.73
2022-11-12T16:49:03.255Z,13.00
2022-11-12T16:51:50.435Z,16.67
2022-11-12T16:54:38.377Z,12.63
2022-11-12T16:57:24.718Z,14.40
2022-11-12T17:00:13.032Z,13.70
2022-11-12T17:02:59.403Z,18.17
2022-11-12T17:05:51.398Z,14.00
2022-11-12T17:08:37.675Z,16.00
2022-11-12T17:11:25.499Z,14.13
2022-11-12T17:14:11.938Z,14.23
2022-11-12T17:16:58.548Z,18.17
2022-11-12T17:19:44.825Z,13.70
2022-11-12T17:22:31.288Z,12.13
2022-11-12T17:25:17.720Z,19.50
2022-11-12T17:28:05.364Z,16.23
2022-11-12T17:30:51.899Z,21.43
2022-11-12T17:33:40.122Z,39.43
2022-11-12T17:36:28.362Z,31.40
2022-11-12T17:39:15.077Z,27.40
2022-11-12T17:42:01.848Z,24.13
2022-11-12T17:44:49.723Z,27.67
2022-11-12T17:47:40.286Z,25.47
2022-11-12T17:50:26.843Z,20.93
2022-11-12T17:53:13.257Z,18.53
2022-11-12T17:55:59.966Z,18.20
2022-11-12T17:58:47.131Z,19.53
2022-11-12T18:01:35.495Z,17.40
2022-11-12T18:04:23.852Z,14.73
2022-11-12T18:07:10.405Z,18.10
2022-11-12T18:09:56.754Z,15.70
2022-11-12T18:12:43.407Z,14.97
2022-11-12T18:15:32.080Z,15.70
2022-11-12T18:18:20.398Z,14.90
2022-11-12T18:21:07.367Z,16.17
2022-11-12T18:23:54.648Z,13.63
2022-11-12T18:26:42.876Z,19.10
2022-11-12T18:29:29.475Z,16.47
2022-11-12T18:32:16.040Z,14.83
2022-11-12T18:35:03.846Z,14.30
2022-11-12T18:37:50.153Z,16.27
2022-11-12T18:40:36.513Z,21.57
2022-11-12T18:43:22.911Z,22.13
2022-11-12T18:46:10.807Z,20.87
2022-11-12T18:48:57.102Z,24.50
2022-11-12T18:51:44.958Z,18.53
2022-11-12T18:54:31.641Z,24.37
2022-11-12T18:57:17.993Z,21.23
2022-11-12T19:00:05.450Z,18.73
2022-11-12T19:02:51.965Z,19.43
2022-11-12T19:05:38.795Z,17.37
2022-11-12T19:08:27.301Z,17.73
2022-11-12T19:11:16.415Z,17.93
2022-11-12T19:14:02.847Z,13.83
2022-11-12T19:16:49.248Z,19.30
2022-11-12T19:19:35.628Z,19.17
2022-11-12T19:22:21.926Z,18.40
2022-11-12T19:25:10.436Z,16.63
2022-11-12T19:27:57.070Z,17.30
2022-11-12T19:30:43.343Z,15.43
2022-11-12T19:33:29.734Z,16.17
2022-11-12T19:36:17.631Z,14.80
2022-11-12T19:39:04.015Z,14.80
2022-11-12T19:41:51.859Z,17.03
2022-11-12T19:44:38.517Z,17.00
2022-11-12T19:47:25.039Z,18.57
2022-11-12T19:50:11.487Z,14.80
2022-11-12T19:52:57.892Z,16.63
2022-11-12T19:55:44.165Z,17.87
2022-11-12T19:58:32.511Z,17.07
2022-11-12T20:01:20.160Z,16.17
2022-11-12T20:04:06.674Z,17.00
2022-11-12T20:06:53.033Z,15.20
2022-11-12T20:09:39.554Z,17.43
2022-11-12T20:12:26.317Z,22.33
2022-11-12T20:15:14.119Z,15.13
2022-11-12T20:18:00.648Z,15.80
2022-11-12T20:20:48.818Z,13.97
2022-11-12T20:23:35.913Z,14.87
2022-11-12T20:26:22.286Z,19.83
2022-11-12T20:29:08.580Z,22.73
2022-11-12T20:31:56.304Z,27.43
2022-11-12T20:34:42.798Z,23.17
2022-11-12T20:37:30.533Z,22.50
2022-11-12T20:40:17.446Z,24.97
2022-11-12T20:43:03.883Z,22.53
2022-11-12T20:45:51.582Z,26.07
2022-11-12T20:48:43.065Z,26.80
2022-11-12T20:51:30.188Z,27.77
2022-11-12T20:54:16.835Z,23.47
2022-11-12T20:57:03.722Z,23.07
2022-11-12T20:59:51.576Z,27.53
2022-11-12T21:02:38.440Z,26.70
2022-11-12T21:05:26.413Z,25.50
2022-11-12T21:08:12.643Z,35.37
2022-11-12T21:11:01.027Z,31.10
2022-11-12T21:13:47.690Z,28.50
2022-11-12T21:16:34.137Z,21.67
2022-11-12T21:19:20.754Z,27.53
2022-11-12T21:22:08.687Z,23.70
2022-11-12T21:24:55.166Z,22.10
2022-11-12T21:27:41.483Z,25.00
2022-11-12T21:30:28.210Z,23.03
2022-11-12T21:33:14.738Z,25.47
2022-11-12T21:36:01.649Z,25.43
2022-11-12T21:38:50.434Z,24.83
2022-11-12T21:41:37.213Z,20.30
2022-11-12T21:44:23.902Z,18.10
2022-11-12T21:47:10.154Z,21.17
2022-11-12T21:49:56.620Z,22.77
2022-11-12T21:52:43.127Z,24.73
2022-11-12T21:55:31.143Z,23.77
2022-11-12T21:58:17.456Z,23.43
2022-11-12T22:01:08.764Z,23.13
2022-11-12T22:03:57.691Z,21.47
2022-11-12T22:06:44.141Z,23.67
2022-11-12T22:09:31.188Z,21.07
2022-11-12T22:12:19.630Z,19.03
2022-11-12T22:15:07.078Z,21.57
2022-11-12T22:17:53.414Z,22.40
2022-11-12T22:20:40.021Z,23.03
2022-11-12T22:23:26.977Z,22.47
2022-11-12T22:26:15.379Z,26.83
2022-11-12T22:29:03.149Z,19.03
2022-11-12T22:31:49.488Z,20.50
2022-11-12T22:34:35.939Z,21.57
2022-11-12T22:37:22.268Z,21.40
2022-11-12T22:40:13.407Z,22.87
2022-11-12T22:43:00.477Z,21.97
2022-11-12T22:45:48.050Z,20.83
2022-11-12T22:48:34.543Z,21.10
2022-11-12T22:51:22.892Z,20.27
2022-11-12T22:54:13.130Z,23.17
2022-11-12T22:56:59.683Z,24.23
2022-11-12T22:59:46.390Z,24.30
2022-11-12T23:02:35.738Z,18.77
2022-11-12T23:05:22.711Z,20.63
2022-11-12T23:08:09.323Z,22.00
2022-11-12T23:10:55.729Z,19.90
2022-11-12T23:13:42.157Z,18.80
2022-11-12T23:16:31.098Z,19.80
2022-11-12T23:19:19.141Z,22.10
2022-11-12T23:22:08.013Z,21.30
2022-11-12T23:24:54.585Z,20.30
2022-11-12T23:27:40.824Z,18.40
2022-11-12T23:30:27.562Z,19.70
2022-11-12T23:33:13.951Z,19.53
2022-11-12T23:36:12.324Z,17.13
2022-11-12T23:38:59.704Z,22.47
2022-11-12T23:41:46.191Z,19.77
2022-11-12T23:44:32.778Z,17.97
2022-11-12T23:47:19.401Z,21.40
2022-11-12T23:50:06.678Z,18.53
2022-11-12T23:52:54.639Z,17.50
2022-11-12T23:55:42.041Z,20.00
2022-11-12T23:58:28.954Z,20.20
